createdAt,value
2023-12-09T00:02:21.088Z,3.35
2023-12-09T00:04:48.611Z,3.35
2023-12-09T00:07:15.988Z,3.35
2023-12-09T00:09:43.523Z,3.39
2023-12-09T00:12:10.828Z,3.41
2023-12-09T00:14:38.149Z,3.42
2023-12-09T00:18:28.648Z,3.33
2023-12-09T00:20:35.547Z,3.26
2023-12-09T00:23:14.086Z,3.35
2023-12-09T00:26:08.252Z,3.30
2023-12-09T00:28:38.686Z,3.35
2023-12-09T00:31:11.257Z,3.40
2023-12-09T00:33:50.007Z,3.45
2023-12-09T00:36:47.323Z,3.45
2023-12-09T00:39:24.856Z,3.48
2023-12-09T00:42:41.010Z,3.50
2023-12-09T01:03:59.680Z,3.52
2023-12-09T01:06:58.911Z,3.58
2023-12-09T01:13:06.853Z,3.50
2023-12-09T01:15:34.600Z,3.69
2023-12-09T01:18:02.084Z,3.60
2023-12-09T01:20:30.092Z,3.53
2023-12-09T01:22:57.445Z,3.41
2023-12-09T01:25:24.872Z,3.42
2023-12-09T01:27:53.629Z,3.49
2023-12-09T01:30:21.538Z,3.49
2023-12-09T01:32:49.023Z,3.69
2023-12-09T01:35:16.500Z,3.64
2023-12-09T01:37:44.746Z,3.64
2023-12-09T01:40:15.165Z,3.62
2023-12-09T01:42:43.853Z,3.63
2023-12-09T01:45:11.958Z,3.53
2023-12-09T01:47:40.958Z,3.56
2023-12-09T01:50:09.428Z,3.61
2023-12-09T01:52:37.395Z,3.67
2023-12-09T01:55:05.917Z,3.68
2023-12-09T01:57:33.392Z,3.66
2023-12-09T02:00:00.836Z,3.58
2023-12-09T02:02:28.509Z,3.61
2023-12-09T02:04:57.163Z,3.61
2023-12-09T02:07:24.482Z,3.54
2023-12-09T02:09:52.341Z,3.53
2023-12-09T02:12:31.116Z,3.52
2023-12-09T02:15:05.272Z,3.57
2023-12-09T02:17:38.303Z,3.53
2023-12-09T02:20:08.281Z,3.50
2023-12-09T02:22:36.099Z,3.51
2023-12-09T02:25:03.745Z,3.51
2023-12-09T02:27:40.403Z,3.57
2023-12-09T02:30:20.849Z,3.61
2023-12-09T02:32:50.891Z,3.61
2023-12-09T02:35:20.504Z,3.76
2023-12-09T02:37:49.485Z,3.77
2023-12-09T02:40:18.356Z,3.83
2023-12-09T02:42:46.796Z,3.91
2023-12-09T02:45:14.426Z,3.88
2023-12-09T02:47:41.888Z,3.81
2023-12-09T02:50:09.634Z,3.83
2023-12-09T02:52:37.175Z,3.78
2023-12-09T02:55:04.882Z,3.81
2023-12-09T02:57:32.365Z,3.86
2023-12-09T03:00:00.078Z,3.76
2023-12-09T03:02:27.544Z,3.71
2023-12-09T03:04:55.295Z,3.82
2023-12-09T03:07:22.622Z,3.82
2023-12-09T03:09:50.027Z,3.88
2023-12-09T03:12:18.335Z,3.96
2023-12-09T03:14:45.930Z,3.79
2023-12-09T03:17:13.241Z,3.98
2023-12-09T03:19:41.756Z,3.96
2023-12-09T03:22:11.733Z,3.94
2023-12-09T03:24:39.591Z,3.91
2023-12-09T03:27:07.421Z,3.90
2023-12-09T03:29:43.276Z,4.01
2023-12-09T03:32:18.419Z,3.96
2023-12-09T03:34:48.610Z,4.01
2023-12-09T03:37:16.706Z,4.00
2023-12-09T03:39:44.326Z,3.88
2023-12-09T03:42:12.033Z,3.97
2023-12-09T03:44:39.376Z,4.05
2023-12-09T03:47:14.692Z,4.04
2023-12-09T03:49:49.188Z,4.03
2023-12-09T03:52:19.002Z,4.13
2023-12-09T03:54:46.782Z,4.12
2023-12-09T03:57:15.688Z,4.02
2023-12-09T03:59:43.133Z,4.10
2023-12-09T04:02:10.479Z,4.11
2023-12-09T04:04:41.590Z,4.04
2023-12-09T04:07:09.203Z,4.03
2023-12-09T04:09:36.544Z,4.03
2023-12-09T04:12:06.930Z,4.05
2023-12-09T04:14:34.710Z,3.96
2023-12-09T04:17:02.294Z,4.10
2023-12-09T04:19:29.847Z,4.04
2023-12-09T04:21:57.498Z,4.06
2023-12-09T04:24:27.373Z,3.99
2023-12-09T04:26:55.279Z,4.02
2023-12-09T04:29:22.753Z,4.07
2023-12-09T04:31:50.133Z,4.10
2023-12-09T04:34:18.222Z,4.11
2023-12-09T04:36:45.556Z,4.12
2023-12-09T04:39:12.996Z,4.04
2023-12-09T04:41:41.261Z,4.10
2023-12-09T04:44:08.847Z,4.10
2023-12-09T04:46:36.354Z,4.18
2023-12-09T04:49:07.209Z,4.14
2023-12-09T04:51:40.477Z,4.17
2023-12-09T04:54:20.335Z,4.08
2023-12-09T04:56:51.548Z,3.99
2023-12-09T04:59:32.287Z,3.91
2023-12-09T05:02:08.467Z,3.97
2023-12-09T05:04:43.317Z,3.98
2023-12-09T05:07:15.141Z,3.94
2023-12-09T05:09:45.588Z,4.12
2023-12-09T05:12:13.323Z,4.21
2023-12-09T05:14:41.515Z,4.11
2023-12-09T05:17:09.880Z,4.14
2023-12-09T05:19:41.247Z,4.13
2023-12-09T05:22:08.842Z,4.08
2023-12-09T05:24:37.545Z,4.16
2023-12-09T05:27:07.452Z,4.16
2023-12-09T05:29:42.813Z,4.21
2023-12-09T05:32:11.876Z,4.12
2023-12-09T05:34:40.463Z,4.20
2023-12-09T05:37:10.968Z,4.17
2023-12-09T05:39:38.622Z,4.18
2023-12-09T05:42:08.117Z,4.26
2023-12-09T05:44:35.664Z,4.24
2023-12-09T05:47:04.028Z,4.29
2023-12-09T05:49:31.379Z,4.40
2023-12-09T05:51:58.635Z,4.34
2023-12-09T05:54:26.509Z,4.28
2023-12-09T05:56:57.411Z,4.28
2023-12-09T05:59:25.339Z,4.30
2023-12-09T06:01:52.834Z,4.24
2023-12-09T06:04:20.662Z,4.25
2023-12-09T06:06:48.836Z,4.22
2023-12-09T06:09:17.944Z,4.14
2023-12-09T06:11:46.016Z,4.06
2023-12-09T06:14:14.047Z,4.05
2023-12-09T06:16:41.904Z,3.96
2023-12-09T06:19:10.159Z,4.10
2023-12-09T06:21:37.993Z,4.18
2023-12-09T06:24:05.726Z,4.17
2023-12-09T06:26:33.123Z,4.23
2023-12-09T06:29:03.422Z,4.08
2023-12-09T06:31:30.780Z,4.07
2023-12-09T06:33:58.285Z,4.04
2023-12-09T06:36:25.759Z,3.99
2023-12-09T06:38:53.050Z,3.94
2023-12-09T06:41:20.311Z,3.89
2023-12-09T06:43:47.627Z,3.96
2023-12-09T06:46:15.000Z,3.98
2023-12-09T06:48:42.819Z,4.06
2023-12-09T06:51:17.464Z,3.96
2023-12-09T06:53:44.898Z,4.00
2023-12-09T06:56:22.183Z,4.09
2023-12-09T06:58:50.428Z,4.13
2023-12-09T07:01:22.451Z,4.23
2023-12-09T07:03:53.336Z,4.23
2023-12-09T07:06:28.583Z,4.20
2023-12-09T07:08:58.491Z,4.23
2023-12-09T07:11:26.248Z,4.23
2023-12-09T07:13:53.526Z,4.20
2023-12-09T07:16:20.980Z,4.12
2023-12-09T07:18:52.283Z,4.09
2023-12-09T07:21:20.230Z,4.06
2023-12-09T07:23:47.453Z,4.15
2023-12-09T07:26:14.782Z,4.19
2023-12-09T07:28:42.026Z,4.11
2023-12-09T07:31:09.430Z,4.14
2023-12-09T07:33:36.784Z,4.15
2023-12-09T07:36:04.367Z,4.11
2023-12-09T07:38:31.850Z,4.14
2023-12-09T07:40:59.212Z,4.08
2023-12-09T07:43:27.190Z,4.12
2023-12-09T07:45:54.586Z,4.35
2023-12-09T07:48:21.948Z,4.31
2023-12-09T07:50:49.374Z,4.31
2023-12-09T07:53:17.306Z,4.42
2023-12-09T07:55:44.546Z,4.48
2023-12-09T07:58:13.058Z,4.46
2023-12-09T08:00:40.418Z,4.43
2023-12-09T08:03:07.629Z,4.43
2023-12-09T08:05:36.128Z,4.46
2023-12-09T08:08:04.054Z,4.47
2023-12-09T08:10:32.733Z,4.54
2023-12-09T08:12:59.957Z,4.56
2023-12-09T08:15:27.373Z,4.75
2023-12-09T08:17:54.802Z,4.74
2023-12-09T08:20:22.009Z,4.66
2023-12-09T08:22:49.236Z,4.61
2023-12-09T08:25:16.610Z,4.63
2023-12-09T08:27:44.025Z,4.73
2023-12-09T08:30:12.303Z,4.81
2023-12-09T08:32:43.600Z,4.96
2023-12-09T08:35:12.100Z,4.89
2023-12-09T08:37:40.294Z,4.79
2023-12-09T08:40:12.910Z,4.79
2023-12-09T08:42:44.182Z,6.05
2023-12-09T08:45:17.142Z,6.56
2023-12-09T08:47:45.880Z,6.65
2023-12-09T08:50:22.683Z,7.44
2023-12-09T08:52:53.548Z,7.82
2023-12-09T08:55:21.172Z,8.32
2023-12-09T08:57:49.787Z,7.86
2023-12-09T09:00:21.588Z,7.82
2023-12-09T09:02:49.876Z,8.15
2023-12-09T09:05:17.266Z,8.37
2023-12-09T09:07:45.541Z,7.95
2023-12-09T09:10:12.799Z,7.51
2023-12-09T09:12:40.044Z,7.16
2023-12-09T09:15:09.194Z,7.00
2023-12-09T09:17:37.217Z,6.65
2023-12-09T09:20:06.631Z,6.42
2023-12-09T09:22:34.987Z,6.45
2023-12-09T09:25:02.804Z,6.31
2023-12-09T09:27:30.201Z,6.33
2023-12-09T09:29:57.581Z,6.33
2023-12-09T09:32:25.039Z,6.66
2023-12-09T09:34:52.487Z,7.27
2023-12-09T09:37:19.773Z,7.66
2023-12-09T09:39:47.742Z,7.44
2023-12-09T09:42:26.990Z,7.43
2023-12-09T09:45:10.737Z,7.35
2023-12-09T09:47:38.405Z,7.28
2023-12-09T09:50:07.884Z,7.22
2023-12-09T09:52:41.521Z,7.23
2023-12-09T09:55:10.058Z,7.28
2023-12-09T09:57:38.257Z,7.44
2023-12-09T10:00:15.377Z,7.28
2023-12-09T10:02:48.004Z,7.12
2023-12-09T10:05:17.432Z,7.16
2023-12-09T10:07:45.797Z,7.14
2023-12-09T10:10:15.387Z,7.13
2023-12-09T10:12:44.057Z,7.02
2023-12-09T10:15:12.695Z,7.03
2023-12-09T10:17:40.444Z,6.94
2023-12-09T10:20:10.058Z,7.00
2023-12-09T10:22:39.176Z,7.00
2023-12-09T10:25:07.429Z,7.21
2023-12-09T10:27:35.301Z,7.18
2023-12-09T10:30:04.001Z,7.16
2023-12-09T10:32:32.277Z,7.18
2023-12-09T10:35:03.309Z,7.21
2023-12-09T10:37:32.975Z,7.13
2023-12-09T10:40:03.913Z,7.09
2023-12-09T10:42:31.639Z,7.11
2023-12-09T10:45:02.336Z,7.17
2023-12-09T10:47:30.385Z,7.11
2023-12-09T10:49:58.308Z,7.11
2023-12-09T10:52:25.849Z,7.06
2023-12-09T10:54:53.179Z,7.08
2023-12-09T10:57:20.779Z,7.10
2023-12-09T10:59:47.970Z,7.23
2023-12-09T11:02:16.641Z,7.28
2023-12-09T11:04:44.490Z,7.29
2023-12-09T11:07:12.698Z,7.30
2023-12-09T11:09:41.431Z,7.28
2023-12-09T11:12:09.143Z,7.34
2023-12-09T11:14:38.429Z,7.40
2023-12-09T11:17:38.062Z,7.58
2023-12-09T11:20:16.572Z,7.64
2023-12-09T11:22:46.544Z,7.62
2023-12-09T11:25:19.835Z,7.64
2023-12-09T11:27:51.931Z,7.62
2023-12-09T11:30:46.708Z,7.76
2023-12-09T11:33:14.402Z,7.93
2023-12-09T11:35:45.147Z,7.88
2023-12-09T11:38:13.318Z,8.00
2023-12-09T11:40:41.132Z,8.04
2023-12-09T11:43:09.718Z,8.00
2023-12-09T11:45:37.943Z,7.93
2023-12-09T11:48:07.617Z,7.94
2023-12-09T11:50:40.018Z,7.87
2023-12-09T11:53:07.734Z,7.93
2023-12-09T11:55:35.043Z,7.94
2023-12-09T11:58:04.515Z,7.93
2023-12-09T12:00:31.818Z,7.93
2023-12-09T12:02:59.254Z,7.99
2023-12-09T12:05:26.990Z,8.05
2023-12-09T12:07:54.372Z,8.05
2023-12-09T12:10:21.700Z,8.02
2023-12-09T12:12:49.081Z,8.01
2023-12-09T12:15:16.540Z,7.97
2023-12-09T12:17:44.068Z,8.07
2023-12-09T12:20:14.045Z,7.97
2023-12-09T12:22:42.047Z,7.97
2023-12-09T12:25:09.986Z,7.93
2023-12-09T12:27:42.913Z,7.94
2023-12-09T12:30:10.560Z,7.98
2023-12-09T12:32:39.080Z,7.97
2023-12-09T12:35:07.183Z,8.05
2023-12-09T12:37:34.870Z,8.02
2023-12-09T12:40:02.210Z,7.98
2023-12-09T12:42:31.124Z,7.90
2023-12-09T12:44:59.601Z,7.82
2023-12-09T12:47:27.028Z,7.77
2023-12-09T12:49:54.580Z,7.66
2023-12-09T12:52:21.963Z,7.61
2023-12-09T12:54:49.332Z,7.51
2023-12-09T12:57:16.700Z,7.48
2023-12-09T12:59:44.416Z,7.51
2023-12-09T13:02:11.698Z,7.59
2023-12-09T13:04:38.967Z,7.53
2023-12-09T13:07:06.261Z,7.44
2023-12-09T13:09:33.565Z,7.46
2023-12-09T13:34:36.009Z,7.12
2023-12-09T13:43:36.993Z,7.16
2023-12-09T13:46:05.146Z,7.12
2023-12-09T13:48:33.071Z,7.10
2023-12-09T13:51:00.589Z,7.06
2023-12-09T13:53:28.003Z,7.13
2023-12-09T13:55:55.274Z,7.11
2023-12-09T13:58:23.045Z,7.07
2023-12-09T14:00:50.475Z,6.99
2023-12-09T14:03:17.856Z,6.92
2023-12-09T14:05:45.095Z,6.99
2023-12-09T14:08:12.397Z,6.97
2023-12-09T14:10:39.783Z,6.92
2023-12-09T14:13:07.035Z,6.86
2023-12-09T14:15:34.464Z,6.88
2023-12-09T14:18:02.071Z,6.87
2023-12-09T14:20:30.289Z,6.85
2023-12-09T14:22:58.364Z,6.81
2023-12-09T14:25:25.770Z,6.83
2023-12-09T14:27:53.486Z,6.67
2023-12-09T14:30:21.931Z,6.70
2023-12-09T14:32:49.367Z,6.66
2023-12-09T14:35:17.139Z,6.55
2023-12-09T14:37:49.074Z,6.53
2023-12-09T14:40:16.801Z,6.53
2023-12-09T14:42:44.136Z,6.53
2023-12-09T14:45:11.710Z,6.37
2023-12-09T14:47:44.981Z,6.31
2023-12-09T14:50:17.973Z,6.29
2023-12-09T14:52:46.288Z,6.28
2023-12-09T14:55:13.665Z,6.34
2023-12-09T14:57:41.066Z,6.25
2023-12-09T15:00:09.106Z,6.20
2023-12-09T15:02:36.353Z,6.15
2023-12-09T15:05:03.817Z,6.15
2023-12-09T15:07:32.890Z,6.04
2023-12-09T15:10:00.216Z,5.93
2023-12-09T15:12:27.850Z,5.85
2023-12-09T15:14:57.349Z,5.77
2023-12-09T15:17:25.998Z,5.72
2023-12-09T15:19:53.446Z,5.67
2023-12-09T15:22:20.850Z,5.62
2023-12-09T15:24:48.255Z,5.55
2023-12-09T15:27:15.931Z,5.45
2023-12-09T15:29:43.282Z,5.37
2023-12-09T15:32:10.463Z,5.28
2023-12-09T15:34:37.806Z,5.28
2023-12-09T15:37:05.805Z,5.24
2023-12-09T15:39:33.968Z,5.27
2023-12-09T15:42:01.809Z,5.20
2023-12-09T15:44:29.036Z,5.15
2023-12-09T15:46:56.292Z,5.18
2023-12-09T15:49:23.617Z,5.25
2023-12-09T15:51:53.127Z,5.21
2023-12-09T15:54:22.237Z,5.11
2023-12-09T15:56:50.874Z,5.02
2023-12-09T15:59:18.220Z,5.04
2023-12-09T16:01:45.756Z,4.98
2023-12-09T16:04:14.955Z,4.94
2023-12-09T16:06:42.310Z,4.92
2023-12-09T16:09:10.398Z,4.94
2023-12-09T16:11:37.629Z,4.96
2023-12-09T16:14:04.792Z,4.98
2023-12-09T16:16:32.324Z,4.91
2023-12-09T16:18:59.765Z,4.85
2023-12-09T16:21:28.832Z,4.92
2023-12-09T16:23:58.338Z,4.93
2023-12-09T16:26:30.545Z,4.91
2023-12-09T16:28:59.892Z,4.85
2023-12-09T16:31:27.386Z,4.76
2023-12-09T16:33:54.784Z,4.73
2023-12-09T16:36:22.330Z,4.80
2023-12-09T16:38:49.658Z,4.83
2023-12-09T16:41:17.008Z,4.72
2023-12-09T16:43:47.195Z,4.74
2023-12-09T16:46:14.648Z,4.75
2023-12-09T16:48:42.065Z,4.67
2023-12-09T16:51:09.565Z,4.65
2023-12-09T16:53:54.717Z,4.66
2023-12-09T16:56:22.066Z,4.73
2023-12-09T16:58:49.488Z,4.63
2023-12-09T17:01:17.110Z,4.53
2023-12-09T17:03:44.482Z,4.63
2023-12-09T17:06:11.899Z,4.63
2023-12-09T17:08:39.149Z,4.48
2023-12-09T17:11:06.639Z,4.55
2023-12-09T17:13:33.839Z,4.54
2023-12-09T17:16:07.520Z,4.46
2023-12-09T17:18:35.212Z,4.40
2023-12-09T17:21:03.726Z,4.41
2023-12-09T17:23:33.074Z,4.48
2023-12-09T17:26:01.002Z,4.58
2023-12-09T17:28:28.212Z,4.50
2023-12-09T17:31:00.764Z,4.47
2023-12-09T17:33:28.208Z,4.39
2023-12-09T17:35:55.518Z,4.27
2023-12-09T17:38:25.570Z,4.22
2023-12-09T17:40:52.863Z,4.24
2023-12-09T17:43:20.302Z,4.18
2023-12-09T17:45:47.580Z,4.14
2023-12-09T17:48:18.725Z,3.99
2023-12-09T17:50:46.055Z,3.95
2023-12-09T17:53:17.876Z,3.99
2023-12-09T17:55:48.880Z,4.05
2023-12-09T17:58:17.183Z,4.16
2023-12-09T18:00:44.750Z,4.20
2023-12-09T18:03:12.153Z,4.30
2023-12-09T18:05:41.523Z,4.23
2023-12-09T18:08:09.352Z,4.30
2023-12-09T18:10:36.581Z,4.15
2023-12-09T18:13:04.026Z,4.17
2023-12-09T18:15:31.863Z,4.26
2023-12-09T18:17:59.280Z,4.25
2023-12-09T18:20:26.602Z,4.17
2023-12-09T18:22:57.001Z,4.17
2023-12-09T18:25:26.702Z,4.12
2023-12-09T18:27:54.324Z,4.26
2023-12-09T18:30:22.008Z,4.22
2023-12-09T18:32:49.721Z,4.13
2023-12-09T18:35:19.196Z,4.21
2023-12-09T18:37:46.969Z,4.24
2023-12-09T18:40:14.246Z,4.18
2023-12-09T18:42:44.006Z,4.10
2023-12-09T18:45:11.304Z,4.11
2023-12-09T18:47:40.224Z,4.03
2023-12-09T18:50:07.948Z,4.00
2023-12-09T18:52:35.242Z,4.21
2023-12-09T18:55:03.073Z,4.10
2023-12-09T18:57:31.019Z,4.19
2023-12-09T18:59:58.507Z,4.14
2023-12-09T19:02:25.965Z,4.23
2023-12-09T19:04:53.473Z,4.18
2023-12-09T19:07:21.170Z,4.08
2023-12-09T19:09:48.524Z,3.91
2023-12-09T19:12:15.824Z,3.94
2023-12-09T19:14:43.212Z,3.90
2023-12-09T19:17:13.549Z,4.03
2023-12-09T19:19:43.530Z,4.10
2023-12-09T19:22:10.796Z,4.12
2023-12-09T19:24:38.068Z,4.27
2023-12-09T19:27:05.879Z,4.16
2023-12-09T19:29:33.644Z,4.21
2023-12-09T19:32:01.077Z,4.11
2023-12-09T19:34:30.354Z,3.95
2023-12-09T19:36:57.779Z,3.99
2023-12-09T19:39:34.412Z,4.00
2023-12-09T19:42:01.811Z,3.82
2023-12-09T19:44:29.475Z,3.84
2023-12-09T19:50:24.734Z,3.90
2023-12-09T19:56:17.849Z,3.79
2023-12-09T19:58:46.955Z,3.77
2023-12-09T20:01:15.123Z,3.71
2023-12-09T20:04:04.685Z,3.82
2023-12-09T20:48:36.417Z,4.14
2023-12-09T20:51:40.790Z,4.19
2023-12-09T21:01:29.254Z,4.30
2023-12-09T21:04:25.387Z,4.23
2023-12-09T21:09:06.742Z,4.39
2023-12-09T21:11:51.901Z,4.36
2023-12-09T21:14:21.130Z,4.32
2023-12-09T21:16:56.919Z,4.38
2023-12-09T21:19:42.680Z,4.47
2023-12-09T21:22:19.402Z,4.57
2023-12-09T21:24:52.554Z,4.48
2023-12-09T21:27:28.277Z,4.29
2023-12-09T21:30:26.853Z,4.52
2023-12-09T21:33:00.428Z,4.62
2023-12-09T21:35:31.070Z,4.64
2023-12-09T21:38:04.387Z,4.38
2023-12-09T21:40:34.149Z,4.31
2023-12-09T21:43:02.062Z,4.40
2023-12-09T21:48:23.391Z,4.41
2023-12-09T21:50:56.689Z,4.47
2023-12-09T21:53:27.942Z,4.40
2023-12-09T21:55:57.387Z,4.44
2023-12-09T21:58:28.209Z,4.47
2023-12-09T22:01:03.962Z,4.51
2023-12-09T22:03:43.576Z,4.54
2023-12-09T22:06:13.865Z,4.69
2023-12-09T22:08:42.634Z,4.67
2023-12-09T22:11:13.479Z,4.62
2023-12-09T22:13:44.279Z,4.70
2023-12-09T22:16:12.106Z,4.64
2023-12-09T22:18:39.700Z,4.69
2023-12-09T22:21:11.220Z,4.98
2023-12-09T22:23:38.793Z,4.99
2023-12-09T22:26:09.501Z,5.14
2023-12-09T22:28:40.243Z,5.44
2023-12-09T22:31:10.684Z,5.62
2023-12-09T22:33:38.449Z,5.70
2023-12-09T22:36:07.577Z,5.80
2023-12-09T22:38:35.257Z,5.93
2023-12-09T22:41:03.189Z,5.96
2023-12-09T22:43:37.077Z,6.13
2023-12-09T22:46:09.157Z,6.18
2023-12-09T22:48:37.408Z,6.17
2023-12-09T22:51:05.478Z,6.08
2023-12-09T22:53:33.408Z,6.26
2023-12-09T22:56:12.759Z,6.24
2023-12-09T22:58:41.801Z,6.26
2023-12-09T23:01:09.491Z,6.40
2023-12-09T23:03:37.076Z,6.28
2023-12-09T23:06:04.626Z,6.20
2023-12-09T23:08:32.533Z,6.20
2023-12-09T23:11:03.700Z,6.11
2023-12-09T23:13:31.256Z,6.06
2023-12-09T23:16:00.266Z,6.09
2023-12-09T23:18:28.037Z,6.06
2023-12-09T23:21:02.073Z,6.05
2023-12-09T23:23:29.687Z,6.08
2023-12-09T23:26:00.240Z,6.00
2023-12-09T23:28:27.738Z,6.06
2023-12-09T23:30:55.236Z,6.05
2023-12-09T23:33:22.837Z,5.96
2023-12-09T23:35:50.439Z,5.97
2023-12-09T23:38:17.926Z,6.10
2023-12-09T23:40:45.480Z,6.03
2023-12-09T23:43:12.908Z,6.10
2023-12-09T23:45:40.279Z,6.06
2023-12-09T23:48:07.900Z,6.03
2023-12-09T23:50:35.465Z,5.95
2023-12-09T23:53:02.905Z,6.11
2023-12-09T23:55:30.602Z,6.19
2023-12-09T23:57:58.006Z,6.03
